Climatempo

Climatempo Meteorologia

Obter
publicidade

Aeroportos registram neve na Grande Curitiba (PR)

23/07/2013 às 09:23
por Aline Tochio

O ae
roporto Afonso Pena, localizado na cidade de São José dos Pinhais (Grande Curitiba), registrou neve às 08h30 da manhã desta terça-feira. Na cidade de Curitiba, o aeroporto de Bacacheri também registrou neve às 8h47 da manhã de hoje. A informação divulgada pelo aeroporto é chamada de METAR, e vem da seguinte forma: SBBI 231147Z 27006KT (27011KMH) 8000 -SNRA BKN010 OVC020 03/02 Q1022 SBCT 231130Z 24007KT (24013KMH) 4500 -SNRA BKN009 OVC025 01/00 Q1022 As letras indicam o País e o aeroporto. Acima, "SB" é Brasil, "BI" é Bacacheri e "CT" é Curitiba (Afonso Pena). O registro de neve vem nas letras "SN", do inglês “snow” (neve). A expressão “-SNRA” significa que está chovendo fraco em forma de neve. Depois disso vem a cobertura de nuvens (“BKN” e “OVC”), e a temperatura. No horário da queda de neve, fazia 03ºC em Bacacheri e 01ºC em Curitiba (Afonso Pena). No METAR das 09 horas, nenhum dos dois aeroportos registrava neve.